Terminal Aerodrome Forecast
Issued by NWS Sioux Falls, SD

Home | Current Version | Previous Version | Graphics & Text | Print | Product List | Glossary On
Versions: 1 2 3 4 5 6 7 8 9 10 11 12 13 14
201
FTUS43 KFSD 261720
TAFFSD
TAF
KFSD 261720Z 2618/2718 26009KT P6SM FEW015 SCT200
     FM262200 22004KT P6SM SCT250
     FM270400 21006KT 5SM BR SCT200
     FM271200 18005KT P6SM SCT100=

USA.gov is the U.S. government's official web portal to all federal, state and local government web resources and services.